sensor_id;sensor_type;location;lat;lon;timestamp;P1;durP1;ratioP1;P2;durP2;ratioP2
76863;SDS011;65834;52.364;9.754;2023-11-18T00:01:50;20.63;;;10.10;;
76863;SDS011;65834;52.364;9.754;2023-11-18T00:04:20;17.57;;;10.30;;
76863;SDS011;65834;52.364;9.754;2023-11-18T00:06:50;20.17;;;10.80;;
76863;SDS011;65834;52.364;9.754;2023-11-18T00:09:21;18.47;;;9.97;;
76863;SDS011;65834;52.364;9.754;2023-11-18T00:11:51;19.07;;;9.63;;
76863;SDS011;65834;52.364;9.754;2023-11-18T00:14:23;20.53;;;10.13;;
76863;SDS011;65834;52.364;9.754;2023-11-18T00:16:53;20.40;;;10.60;;
76863;SDS011;65834;52.364;9.754;2023-11-18T00:19:22;21.23;;;11.40;;
76863;SDS011;65834;52.364;9.754;2023-11-18T00:21:52;19.33;;;10.77;;
76863;SDS011;65834;52.364;9.754;2023-11-18T00:24:22;20.67;;;10.00;;
76863;SDS011;65834;52.364;9.754;2023-11-18T00:26:52;20.10;;;11.03;;
76863;SDS011;65834;52.364;9.754;2023-11-18T00:29:24;21.80;;;11.17;;
76863;SDS011;65834;52.364;9.754;2023-11-18T00:31:53;18.90;;;10.30;;
76863;SDS011;65834;52.364;9.754;2023-11-18T00:34:23;19.83;;;9.97;;
76863;SDS011;65834;52.364;9.754;2023-11-18T00:36:53;18.83;;;10.17;;
76863;SDS011;65834;52.364;9.754;2023-11-18T00:39:23;20.77;;;10.83;;
76863;SDS011;65834;52.364;9.754;2023-11-18T00:41:53;18.63;;;11.20;;
76863;SDS011;65834;52.364;9.754;2023-11-18T00:44:26;19.40;;;11.00;;
76863;SDS011;65834;52.364;9.754;2023-11-18T00:46:55;22.02;;;11.27;;
76863;SDS011;65834;52.364;9.754;2023-11-18T00:49:25;20.90;;;11.07;;
76863;SDS011;65834;52.364;9.754;2023-11-18T00:51:55;19.50;;;11.13;;
76863;SDS011;65834;52.364;9.754;2023-11-18T00:54:25;20.03;;;10.47;;
76863;SDS011;65834;52.364;9.754;2023-11-18T00:56:54;19.67;;;11.00;;
76863;SDS011;65834;52.364;9.754;2023-11-18T00:59:26;21.17;;;10.20;;
76863;SDS011;65834;52.364;9.754;2023-11-18T01:01:53;19.20;;;11.03;;
76863;SDS011;65834;52.364;9.754;2023-11-18T01:04:24;21.07;;;11.33;;
76863;SDS011;65834;52.364;9.754;2023-11-18T01:06:54;20.83;;;11.13;;
76863;SDS011;65834;52.364;9.754;2023-11-18T01:09:24;21.77;;;11.27;;
76863;SDS011;65834;52.364;9.754;2023-11-18T01:11:54;20.20;;;11.20;;
76863;SDS011;65834;52.364;9.754;2023-11-18T01:14:37;21.30;;;11.53;;
76863;SDS011;65834;52.364;9.754;2023-11-18T01:17:08;21.33;;;11.07;;
76863;SDS011;65834;52.364;9.754;2023-11-18T01:19:40;22.08;;;12.05;;
76863;SDS011;65834;52.364;9.754;2023-11-18T01:22:10;23.77;;;11.87;;
76863;SDS011;65834;52.364;9.754;2023-11-18T01:24:40;23.97;;;12.33;;
76863;SDS011;65834;52.364;9.754;2023-11-18T01:27:10;21.87;;;11.50;;
76863;SDS011;65834;52.364;9.754;2023-11-18T01:29:42;21.23;;;11.27;;
76863;SDS011;65834;52.364;9.754;2023-11-18T01:32:13;22.10;;;11.87;;
76863;SDS011;65834;52.364;9.754;2023-11-18T01:34:44;23.73;;;12.43;;
76863;SDS011;65834;52.364;9.754;2023-11-18T01:37:17;25.00;;;12.20;;
76863;SDS011;65834;52.364;9.754;2023-11-18T01:39:48;22.13;;;11.93;;
76863;SDS011;65834;52.364;9.754;2023-11-18T01:42:17;28.27;;;15.40;;
76863;SDS011;65834;52.364;9.754;2023-11-18T01:44:50;27.93;;;14.40;;
76863;SDS011;65834;52.364;9.754;2023-11-18T01:47:21;24.60;;;14.37;;
76863;SDS011;65834;52.364;9.754;2023-11-18T01:49:51;29.33;;;15.23;;
76863;SDS011;65834;52.364;9.754;2023-11-18T01:52:23;25.88;;;13.82;;
76863;SDS011;65834;52.364;9.754;2023-11-18T01:54:53;30.30;;;16.43;;
76863;SDS011;65834;52.364;9.754;2023-11-18T01:57:24;28.40;;;15.80;;
76863;SDS011;65834;52.364;9.754;2023-11-18T01:59:56;27.77;;;16.10;;
76863;SDS011;65834;52.364;9.754;2023-11-18T02:02:26;27.80;;;15.75;;
76863;SDS011;65834;52.364;9.754;2023-11-18T02:04:56;31.37;;;16.33;;
76863;SDS011;65834;52.364;9.754;2023-11-18T02:07:27;31.53;;;16.43;;
76863;SDS011;65834;52.364;9.754;2023-11-18T02:09:57;27.27;;;16.27;;
76863;SDS011;65834;52.364;9.754;2023-11-18T02:12:29;28.63;;;17.40;;
76863;SDS011;65834;52.364;9.754;2023-11-18T02:15:10;31.13;;;16.63;;
76863;SDS011;65834;52.364;9.754;2023-11-18T02:17:41;28.00;;;16.10;;
76863;SDS011;65834;52.364;9.754;2023-11-18T02:20:13;27.55;;;16.20;;
76863;SDS011;65834;52.364;9.754;2023-11-18T02:22:47;27.90;;;16.00;;
76863;SDS011;65834;52.364;9.754;2023-11-18T02:25:18;29.87;;;16.27;;
76863;SDS011;65834;52.364;9.754;2023-11-18T02:27:50;29.43;;;16.57;;
76863;SDS011;65834;52.364;9.754;2023-11-18T02:30:20;28.58;;;16.38;;
76863;SDS011;65834;52.364;9.754;2023-11-18T02:32:51;27.80;;;15.00;;
76863;SDS011;65834;52.364;9.754;2023-11-18T02:35:27;28.90;;;16.50;;
76863;SDS011;65834;52.364;9.754;2023-11-18T02:38:01;27.87;;;15.47;;
76863;SDS011;65834;52.364;9.754;2023-11-18T02:40:32;27.27;;;15.83;;
76863;SDS011;65834;52.364;9.754;2023-11-18T02:43:08;25.53;;;14.87;;
76863;SDS011;65834;52.364;9.754;2023-11-18T02:45:39;26.87;;;15.70;;
76863;SDS011;65834;52.364;9.754;2023-11-18T02:48:11;25.60;;;14.70;;
76863;SDS011;65834;52.364;9.754;2023-11-18T02:50:41;25.53;;;13.60;;
76863;SDS011;65834;52.364;9.754;2023-11-18T02:53:13;24.83;;;14.60;;
76863;SDS011;65834;52.364;9.754;2023-11-18T02:55:43;26.00;;;16.57;;
76863;SDS011;65834;52.364;9.754;2023-11-18T02:58:15;25.93;;;14.63;;
76863;SDS011;65834;52.364;9.754;2023-11-18T03:00:45;26.10;;;14.73;;
76863;SDS011;65834;52.364;9.754;2023-11-18T03:03:15;24.17;;;13.67;;
76863;SDS011;65834;52.364;9.754;2023-11-18T03:05:45;25.67;;;14.03;;
76863;SDS011;65834;52.364;9.754;2023-11-18T03:08:16;25.83;;;14.03;;
76863;SDS011;65834;52.364;9.754;2023-11-18T03:10:46;23.63;;;13.07;;
76863;SDS011;65834;52.364;9.754;2023-11-18T03:13:21;26.47;;;14.13;;
76863;SDS011;65834;52.364;9.754;2023-11-18T03:15:51;26.90;;;13.70;;
76863;SDS011;65834;52.364;9.754;2023-11-18T03:18:21;23.97;;;13.80;;
76863;SDS011;65834;52.364;9.754;2023-11-18T03:20:52;26.50;;;13.70;;
76863;SDS011;65834;52.364;9.754;2023-11-18T03:23:22;29.30;;;15.50;;
76863;SDS011;65834;52.364;9.754;2023-11-18T03:25:52;24.63;;;14.57;;
76863;SDS011;65834;52.364;9.754;2023-11-18T03:28:25;24.70;;;12.93;;
76863;SDS011;65834;52.364;9.754;2023-11-18T03:30:55;24.90;;;14.57;;
76863;SDS011;65834;52.364;9.754;2023-11-18T03:33:26;27.57;;;15.37;;
76863;SDS011;65834;52.364;9.754;2023-11-18T03:35:56;28.63;;;15.73;;
76863;SDS011;65834;52.364;9.754;2023-11-18T03:38:26;26.37;;;14.13;;
76863;SDS011;65834;52.364;9.754;2023-11-18T03:40:56;28.20;;;16.17;;
76863;SDS011;65834;52.364;9.754;2023-11-18T03:43:29;29.07;;;16.23;;
76863;SDS011;65834;52.364;9.754;2023-11-18T03:45:58;28.98;;;17.23;;
76863;SDS011;65834;52.364;9.754;2023-11-18T03:48:28;32.67;;;17.97;;
76863;SDS011;65834;52.364;9.754;2023-11-18T03:50:58;28.37;;;16.70;;
76863;SDS011;65834;52.364;9.754;2023-11-18T03:53:27;30.27;;;16.87;;
76863;SDS011;65834;52.364;9.754;2023-11-18T03:56:00;31.15;;;17.85;;
76863;SDS011;65834;52.364;9.754;2023-11-18T03:58:34;25.77;;;14.93;;
76863;SDS011;65834;52.364;9.754;2023-11-18T04:01:04;26.15;;;14.88;;
76863;SDS011;65834;52.364;9.754;2023-11-18T04:03:37;27.40;;;15.83;;
76863;SDS011;65834;52.364;9.754;2023-11-18T04:06:09;31.47;;;16.80;;
76863;SDS011;65834;52.364;9.754;2023-11-18T04:08:42;26.53;;;15.90;;
76863;SDS011;65834;52.364;9.754;2023-11-18T04:11:13;27.65;;;15.32;;
76863;SDS011;65834;52.364;9.754;2023-11-18T04:13:45;26.20;;;14.13;;
76863;SDS011;65834;52.364;9.754;2023-11-18T04:16:16;28.08;;;15.80;;
76863;SDS011;65834;52.364;9.754;2023-11-18T04:18:46;28.30;;;14.93;;
76863;SDS011;65834;52.364;9.754;2023-11-18T04:21:16;31.07;;;16.63;;
76863;SDS011;65834;52.364;9.754;2023-11-18T04:23:46;25.50;;;15.20;;
76863;SDS011;65834;52.364;9.754;2023-11-18T04:26:15;28.03;;;15.10;;
76863;SDS011;65834;52.364;9.754;2023-11-18T04:28:47;30.70;;;16.00;;
76863;SDS011;65834;52.364;9.754;2023-11-18T04:31:17;26.25;;;15.25;;
76863;SDS011;65834;52.364;9.754;2023-11-18T04:33:48;26.33;;;15.13;;
76863;SDS011;65834;52.364;9.754;2023-11-18T04:36:17;26.57;;;14.57;;
76863;SDS011;65834;52.364;9.754;2023-11-18T04:38:48;28.43;;;14.77;;
76863;SDS011;65834;52.364;9.754;2023-11-18T04:41:18;28.30;;;15.03;;
76863;SDS011;65834;52.364;9.754;2023-11-18T04:43:52;28.10;;;16.03;;
76863;SDS011;65834;52.364;9.754;2023-11-18T04:46:22;24.45;;;14.60;;
76863;SDS011;65834;52.364;9.754;2023-11-18T04:48:52;25.70;;;16.13;;
76863;SDS011;65834;52.364;9.754;2023-11-18T04:51:23;27.63;;;15.20;;
76863;SDS011;65834;52.364;9.754;2023-11-18T04:53:52;28.50;;;16.53;;
76863;SDS011;65834;52.364;9.754;2023-11-18T04:56:22;26.83;;;15.50;;
76863;SDS011;65834;52.364;9.754;2023-11-18T04:58:54;28.97;;;16.53;;
76863;SDS011;65834;52.364;9.754;2023-11-18T05:01:24;30.52;;;17.35;;
76863;SDS011;65834;52.364;9.754;2023-11-18T05:03:53;27.10;;;15.77;;
76863;SDS011;65834;52.364;9.754;2023-11-18T05:06:24;30.43;;;16.70;;
76863;SDS011;65834;52.364;9.754;2023-11-18T05:08:53;27.17;;;15.93;;
76863;SDS011;65834;52.364;9.754;2023-11-18T05:11:23;30.87;;;15.27;;
76863;SDS011;65834;52.364;9.754;2023-11-18T05:13:55;31.57;;;18.77;;
76863;SDS011;65834;52.364;9.754;2023-11-18T05:16:25;27.27;;;15.53;;
76863;SDS011;65834;52.364;9.754;2023-11-18T05:18:55;28.33;;;16.07;;
76863;SDS011;65834;52.364;9.754;2023-11-18T05:21:25;26.57;;;15.87;;
76863;SDS011;65834;52.364;9.754;2023-11-18T05:23:54;30.90;;;17.03;;
76863;SDS011;65834;52.364;9.754;2023-11-18T05:26:24;25.50;;;15.10;;
76863;SDS011;65834;52.364;9.754;2023-11-18T05:28:56;27.30;;;15.47;;
76863;SDS011;65834;52.364;9.754;2023-11-18T05:31:26;26.95;;;15.50;;
76863;SDS011;65834;52.364;9.754;2023-11-18T05:33:58;32.35;;;16.63;;
76863;SDS011;65834;52.364;9.754;2023-11-18T05:36:29;31.10;;;16.43;;
76863;SDS011;65834;52.364;9.754;2023-11-18T05:39:04;28.67;;;16.17;;
76863;SDS011;65834;52.364;9.754;2023-11-18T05:41:34;27.43;;;15.63;;
76863;SDS011;65834;52.364;9.754;2023-11-18T05:44:09;30.98;;;16.70;;
76863;SDS011;65834;52.364;9.754;2023-11-18T05:46:44;30.60;;;15.33;;
76863;SDS011;65834;52.364;9.754;2023-11-18T05:49:14;31.43;;;15.77;;
76863;SDS011;65834;52.364;9.754;2023-11-18T05:51:44;28.37;;;16.17;;
76863;SDS011;65834;52.364;9.754;2023-11-18T05:54:14;29.57;;;16.93;;
76863;SDS011;65834;52.364;9.754;2023-11-18T05:56:44;32.17;;;16.27;;
76863;SDS011;65834;52.364;9.754;2023-11-18T05:59:16;27.20;;;15.90;;
76863;SDS011;65834;52.364;9.754;2023-11-18T06:01:46;35.38;;;18.65;;
76863;SDS011;65834;52.364;9.754;2023-11-18T06:04:16;29.40;;;16.53;;
76863;SDS011;65834;52.364;9.754;2023-11-18T06:06:45;31.37;;;16.87;;
76863;SDS011;65834;52.364;9.754;2023-11-18T06:09:15;32.03;;;17.03;;
76863;SDS011;65834;52.364;9.754;2023-11-18T06:11:47;31.42;;;16.70;;
76863;SDS011;65834;52.364;9.754;2023-11-18T06:14:20;32.30;;;16.60;;
76863;SDS011;65834;52.364;9.754;2023-11-18T06:16:50;33.80;;;17.20;;
76863;SDS011;65834;52.364;9.754;2023-11-18T06:19:19;31.83;;;17.63;;
76863;SDS011;65834;52.364;9.754;2023-11-18T06:21:49;33.93;;;17.83;;
76863;SDS011;65834;52.364;9.754;2023-11-18T06:24:19;32.10;;;17.87;;
76863;SDS011;65834;52.364;9.754;2023-11-18T06:26:49;32.27;;;16.93;;
76863;SDS011;65834;52.364;9.754;2023-11-18T06:29:21;31.67;;;17.27;;
76863;SDS011;65834;52.364;9.754;2023-11-18T06:31:51;33.38;;;16.40;;
76863;SDS011;65834;52.364;9.754;2023-11-18T06:34:20;30.50;;;15.80;;
76863;SDS011;65834;52.364;9.754;2023-11-18T06:36:50;30.83;;;15.80;;
76863;SDS011;65834;52.364;9.754;2023-11-18T06:39:19;32.00;;;16.77;;
76863;SDS011;65834;52.364;9.754;2023-11-18T06:41:56;32.00;;;18.47;;
76863;SDS011;65834;52.364;9.754;2023-11-18T06:44:28;33.73;;;16.70;;
76863;SDS011;65834;52.364;9.754;2023-11-18T06:46:57;31.20;;;18.13;;
76863;SDS011;65834;52.364;9.754;2023-11-18T06:49:29;36.33;;;18.45;;
76863;SDS011;65834;52.364;9.754;2023-11-18T06:52:01;32.83;;;17.07;;
76863;SDS011;65834;52.364;9.754;2023-11-18T06:54:31;32.10;;;16.83;;
76863;SDS011;65834;52.364;9.754;2023-11-18T06:57:01;33.33;;;16.73;;
76863;SDS011;65834;52.364;9.754;2023-11-18T06:59:33;36.03;;;18.70;;
76863;SDS011;65834;52.364;9.754;2023-11-18T07:04:34;35.63;;;17.23;;
76863;SDS011;65834;52.364;9.754;2023-11-18T07:07:05;37.40;;;19.07;;
76863;SDS011;65834;52.364;9.754;2023-11-18T07:09:35;32.23;;;17.23;;
76863;SDS011;65834;52.364;9.754;2023-11-18T07:12:06;36.23;;;16.90;;
76863;SDS011;65834;52.364;9.754;2023-11-18T07:14:38;35.40;;;17.80;;
76863;SDS011;65834;52.364;9.754;2023-11-18T07:17:08;36.17;;;16.88;;
76863;SDS011;65834;52.364;9.754;2023-11-18T07:19:37;33.23;;;17.57;;
76863;SDS011;65834;52.364;9.754;2023-11-18T07:22:07;35.40;;;17.73;;
76863;SDS011;65834;52.364;9.754;2023-11-18T07:24:36;36.33;;;18.37;;
76863;SDS011;65834;52.364;9.754;2023-11-18T07:27:07;37.87;;;18.43;;
76863;SDS011;65834;52.364;9.754;2023-11-18T07:29:40;39.13;;;19.90;;
76863;SDS011;65834;52.364;9.754;2023-11-18T07:32:11;38.63;;;19.17;;
76863;SDS011;65834;52.364;9.754;2023-11-18T07:34:41;36.47;;;19.03;;
76863;SDS011;65834;52.364;9.754;2023-11-18T07:37:11;40.13;;;19.17;;
76863;SDS011;65834;52.364;9.754;2023-11-18T07:39:41;43.00;;;20.07;;
76863;SDS011;65834;52.364;9.754;2023-11-18T07:42:15;38.70;;;19.53;;
76863;SDS011;65834;52.364;9.754;2023-11-18T07:44:47;37.50;;;20.60;;
76863;SDS011;65834;52.364;9.754;2023-11-18T07:47:18;34.80;;;18.77;;
76863;SDS011;65834;52.364;9.754;2023-11-18T07:49:48;36.17;;;18.80;;
76863;SDS011;65834;52.364;9.754;2023-11-18T07:52:17;38.87;;;18.37;;
76863;SDS011;65834;52.364;9.754;2023-11-18T07:54:47;39.00;;;18.10;;
76863;SDS011;65834;52.364;9.754;2023-11-18T07:57:19;38.23;;;19.40;;
76863;SDS011;65834;52.364;9.754;2023-11-18T07:59:52;39.93;;;18.97;;
76863;SDS011;65834;52.364;9.754;2023-11-18T08:02:22;36.83;;;17.42;;
76863;SDS011;65834;52.364;9.754;2023-11-18T08:04:52;36.73;;;19.13;;
76863;SDS011;65834;52.364;9.754;2023-11-18T08:07:23;40.20;;;18.00;;
76863;SDS011;65834;52.364;9.754;2023-11-18T08:09:53;37.60;;;19.10;;
76863;SDS011;65834;52.364;9.754;2023-11-18T08:12:24;38.40;;;18.10;;
76863;SDS011;65834;52.364;9.754;2023-11-18T08:14:54;38.03;;;20.00;;
76863;SDS011;65834;52.364;9.754;2023-11-18T08:19:54;37.93;;;18.80;;
76863;SDS011;65834;52.364;9.754;2023-11-18T08:22:26;39.93;;;19.30;;
76863;SDS011;65834;52.364;9.754;2023-11-18T08:24:56;41.33;;;19.90;;
76863;SDS011;65834;52.364;9.754;2023-11-18T08:27:26;39.90;;;18.77;;
76863;SDS011;65834;52.364;9.754;2023-11-18T08:29:59;35.40;;;18.10;;
76863;SDS011;65834;52.364;9.754;2023-11-18T08:32:32;36.03;;;16.93;;
76863;SDS011;65834;52.364;9.754;2023-11-18T08:35:02;34.73;;;17.20;;
76863;SDS011;65834;52.364;9.754;2023-11-18T08:37:32;35.63;;;16.70;;
76863;SDS011;65834;52.364;9.754;2023-11-18T08:40:02;38.83;;;17.57;;
76863;SDS011;65834;52.364;9.754;2023-11-18T08:42:33;37.67;;;16.53;;
76863;SDS011;65834;52.364;9.754;2023-11-18T08:45:06;36.87;;;17.13;;
76863;SDS011;65834;52.364;9.754;2023-11-18T08:47:42;31.60;;;16.57;;
76863;SDS011;65834;52.364;9.754;2023-11-18T08:50:12;36.17;;;17.20;;
76863;SDS011;65834;52.364;9.754;2023-11-18T08:52:43;37.63;;;16.30;;
76863;SDS011;65834;52.364;9.754;2023-11-18T08:55:14;37.90;;;16.97;;
76863;SDS011;65834;52.364;9.754;2023-11-18T08:57:48;40.10;;;18.83;;
76863;SDS011;65834;52.364;9.754;2023-11-18T09:00:28;36.40;;;18.00;;
76863;SDS011;65834;52.364;9.754;2023-11-18T09:03:17;34.60;;;16.67;;
76863;SDS011;65834;52.364;9.754;2023-11-18T09:05:51;36.10;;;17.07;;
76863;SDS011;65834;52.364;9.754;2023-11-18T09:08:31;35.43;;;16.83;;
76863;SDS011;65834;52.364;9.754;2023-11-18T09:11:02;35.90;;;16.53;;
76863;SDS011;65834;52.364;9.754;2023-11-18T09:13:34;40.63;;;16.80;;
76863;SDS011;65834;52.364;9.754;2023-11-18T09:16:08;37.43;;;18.50;;
76863;SDS011;65834;52.364;9.754;2023-11-18T09:18:38;38.13;;;17.73;;
76863;SDS011;65834;52.364;9.754;2023-11-18T09:21:12;38.80;;;17.80;;
76863;SDS011;65834;52.364;9.754;2023-11-18T09:23:46;37.03;;;18.10;;
76863;SDS011;65834;52.364;9.754;2023-11-18T09:26:16;31.40;;;15.77;;
76863;SDS011;65834;52.364;9.754;2023-11-18T09:28:48;33.07;;;15.83;;
76863;SDS011;65834;52.364;9.754;2023-11-18T09:31:22;32.63;;;15.37;;
76863;SDS011;65834;52.364;9.754;2023-11-18T09:33:52;37.95;;;17.90;;
76863;SDS011;65834;52.364;9.754;2023-11-18T09:36:24;33.92;;;16.40;;
76863;SDS011;65834;52.364;9.754;2023-11-18T09:38:55;31.80;;;16.07;;
76863;SDS011;65834;52.364;9.754;2023-11-18T09:41:25;35.63;;;15.67;;
76863;SDS011;65834;52.364;9.754;2023-11-18T09:43:55;33.50;;;16.47;;
76863;SDS011;65834;52.364;9.754;2023-11-18T09:46:31;35.43;;;16.93;;
76863;SDS011;65834;52.364;9.754;2023-11-18T09:49:10;36.63;;;16.47;;
76863;SDS011;65834;52.364;9.754;2023-11-18T09:51:53;31.43;;;15.73;;
76863;SDS011;65834;52.364;9.754;2023-11-18T09:54:27;31.93;;;15.60;;
76863;SDS011;65834;52.364;9.754;2023-11-18T09:57:06;31.17;;;16.17;;
76863;SDS011;65834;52.364;9.754;2023-11-18T09:59:45;33.10;;;15.40;;
76863;SDS011;65834;52.364;9.754;2023-11-18T10:02:25;32.23;;;16.57;;
76863;SDS011;65834;52.364;9.754;2023-11-18T10:04:55;31.77;;;15.60;;
76863;SDS011;65834;52.364;9.754;2023-11-18T10:07:28;34.30;;;15.15;;
76863;SDS011;65834;52.364;9.754;2023-11-18T10:10:01;38.93;;;15.83;;
76863;SDS011;65834;52.364;9.754;2023-11-18T10:12:41;31.70;;;13.90;;
76863;SDS011;65834;52.364;9.754;2023-11-18T10:15:13;29.03;;;13.67;;
76863;SDS011;65834;52.364;9.754;2023-11-18T10:17:46;25.70;;;13.03;;
76863;SDS011;65834;52.364;9.754;2023-11-18T10:23:17;27.60;;;12.07;;
76863;SDS011;65834;52.364;9.754;2023-11-18T10:25:50;27.37;;;12.47;;
76863;SDS011;65834;52.364;9.754;2023-11-18T10:28:24;28.03;;;12.20;;
76863;SDS011;65834;52.364;9.754;2023-11-18T10:30:59;25.20;;;11.03;;
76863;SDS011;65834;52.364;9.754;2023-11-18T10:33:35;22.40;;;11.27;;
76863;SDS011;65834;52.364;9.754;2023-11-18T10:36:16;23.17;;;11.33;;
76863;SDS011;65834;52.364;9.754;2023-11-18T10:38:49;22.57;;;10.40;;
76863;SDS011;65834;52.364;9.754;2023-11-18T10:41:23;24.47;;;9.97;;
76863;SDS011;65834;52.364;9.754;2023-11-18T10:44:04;20.17;;;9.77;;
76863;SDS011;65834;52.364;9.754;2023-11-18T10:46:36;21.00;;;8.90;;
76863;SDS011;65834;52.364;9.754;2023-11-18T10:49:09;22.53;;;9.53;;
76863;SDS011;65834;52.364;9.754;2023-11-18T10:51:39;22.23;;;9.88;;
76863;SDS011;65834;52.364;9.754;2023-11-18T10:54:08;20.97;;;8.70;;
76863;SDS011;65834;52.364;9.754;2023-11-18T10:56:47;18.90;;;8.40;;
76863;SDS011;65834;52.364;9.754;2023-11-18T10:59:23;17.13;;;7.77;;
76863;SDS011;65834;52.364;9.754;2023-11-18T11:01:53;20.00;;;8.27;;
76863;SDS011;65834;52.364;9.754;2023-11-18T11:04:27;17.20;;;6.73;;
76863;SDS011;65834;52.364;9.754;2023-11-18T11:07:12;20.63;;;8.13;;
76863;SDS011;65834;52.364;9.754;2023-11-18T11:09:45;16.83;;;7.00;;
76863;SDS011;65834;52.364;9.754;2023-11-18T11:12:16;20.10;;;7.87;;
76863;SDS011;65834;52.364;9.754;2023-11-18T11:14:54;17.07;;;7.37;;
76863;SDS011;65834;52.364;9.754;2023-11-18T11:17:30;17.30;;;7.37;;
76863;SDS011;65834;52.364;9.754;2023-11-18T11:20:07;18.00;;;7.30;;
76863;SDS011;65834;52.364;9.754;2023-11-18T11:22:46;15.43;;;6.17;;
76863;SDS011;65834;52.364;9.754;2023-11-18T11:25:32;14.77;;;5.37;;
76863;SDS011;65834;52.364;9.754;2023-11-18T11:28:10;13.57;;;4.60;;
76863;SDS011;65834;52.364;9.754;2023-11-18T11:30:49;11.43;;;4.53;;
76863;SDS011;65834;52.364;9.754;2023-11-18T11:33:25;13.53;;;4.93;;
76863;SDS011;65834;52.364;9.754;2023-11-18T11:36:06;13.87;;;6.83;;
76863;SDS011;65834;52.364;9.754;2023-11-18T11:38:42;14.90;;;5.33;;
76863;SDS011;65834;52.364;9.754;2023-11-18T11:41:13;13.30;;;5.03;;
76863;SDS011;65834;52.364;9.754;2023-11-18T11:43:52;12.33;;;5.23;;
76863;SDS011;65834;52.364;9.754;2023-11-18T11:46:28;11.13;;;4.80;;
76863;SDS011;65834;52.364;9.754;2023-11-18T11:49:01;12.90;;;5.17;;
76863;SDS011;65834;52.364;9.754;2023-11-18T11:51:46;14.83;;;6.07;;
76863;SDS011;65834;52.364;9.754;2023-11-18T11:54:21;13.60;;;5.07;;
76863;SDS011;65834;52.364;9.754;2023-11-18T11:56:56;12.10;;;5.50;;
76863;SDS011;65834;52.364;9.754;2023-11-18T11:59:35;13.37;;;5.57;;
76863;SDS011;65834;52.364;9.754;2023-11-18T12:02:24;13.97;;;5.50;;
76863;SDS011;65834;52.364;9.754;2023-11-18T12:04:56;12.80;;;5.00;;
76863;SDS011;65834;52.364;9.754;2023-11-18T12:07:35;15.33;;;5.43;;
76863;SDS011;65834;52.364;9.754;2023-11-18T12:10:09;13.10;;;5.70;;
76863;SDS011;65834;52.364;9.754;2023-11-18T12:12:47;14.17;;;5.23;;
76863;SDS011;65834;52.364;9.754;2023-11-18T12:18:21;13.38;;;4.97;;
76863;SDS011;65834;52.364;9.754;2023-11-18T12:20:51;14.27;;;5.93;;
76863;SDS011;65834;52.364;9.754;2023-11-18T12:23:26;14.35;;;6.10;;
76863;SDS011;65834;52.364;9.754;2023-11-18T12:25:57;16.50;;;6.33;;
76863;SDS011;65834;52.364;9.754;2023-11-18T12:28:30;15.60;;;6.15;;
76863;SDS011;65834;52.364;9.754;2023-11-18T12:31:02;15.27;;;7.28;;
76863;SDS011;65834;52.364;9.754;2023-11-18T12:42:51;16.23;;;6.70;;
76863;SDS011;65834;52.364;9.754;2023-11-18T12:45:44;14.60;;;6.47;;
76863;SDS011;65834;52.364;9.754;2023-11-18T12:48:35;16.10;;;7.28;;
76863;SDS011;65834;52.364;9.754;2023-11-18T12:51:13;15.03;;;7.00;;
76863;SDS011;65834;52.364;9.754;2023-11-18T12:53:49;17.43;;;7.10;;
76863;SDS011;65834;52.364;9.754;2023-11-18T12:56:20;17.67;;;7.63;;
76863;SDS011;65834;52.364;9.754;2023-11-18T12:58:53;15.23;;;6.17;;
76863;SDS011;65834;52.364;9.754;2023-11-18T13:01:22;15.75;;;6.55;;
76863;SDS011;65834;52.364;9.754;2023-11-18T13:03:54;14.13;;;6.20;;
76863;SDS011;65834;52.364;9.754;2023-11-18T13:06:23;15.50;;;6.50;;
76863;SDS011;65834;52.364;9.754;2023-11-18T13:08:55;14.70;;;6.37;;
76863;SDS011;65834;52.364;9.754;2023-11-18T13:11:27;15.10;;;6.93;;
76863;SDS011;65834;52.364;9.754;2023-11-18T13:14:00;13.67;;;6.30;;
76863;SDS011;65834;52.364;9.754;2023-11-18T13:16:31;14.33;;;6.40;;
76863;SDS011;65834;52.364;9.754;2023-11-18T13:19:02;15.03;;;6.53;;
76863;SDS011;65834;52.364;9.754;2023-11-18T13:21:33;14.83;;;6.00;;
76863;SDS011;65834;52.364;9.754;2023-11-18T13:24:03;15.47;;;6.47;;
76863;SDS011;65834;52.364;9.754;2023-11-18T13:26:35;15.90;;;6.20;;
76863;SDS011;65834;52.364;9.754;2023-11-18T13:29:07;14.53;;;5.63;;
76863;SDS011;65834;52.364;9.754;2023-11-18T13:31:37;15.98;;;6.32;;
76863;SDS011;65834;52.364;9.754;2023-11-18T13:34:07;15.33;;;6.63;;
76863;SDS011;65834;52.364;9.754;2023-11-18T13:36:37;14.17;;;6.30;;
76863;SDS011;65834;52.364;9.754;2023-11-18T13:39:07;15.53;;;5.90;;
76863;SDS011;65834;52.364;9.754;2023-11-18T13:41:43;14.17;;;6.03;;
76863;SDS011;65834;52.364;9.754;2023-11-18T13:47:05;14.53;;;6.03;;
76863;SDS011;65834;52.364;9.754;2023-11-18T13:49:38;14.40;;;5.77;;
76863;SDS011;65834;52.364;9.754;2023-11-18T13:52:09;15.43;;;5.80;;
76863;SDS011;65834;52.364;9.754;2023-11-18T13:54:42;14.50;;;5.30;;
76863;SDS011;65834;52.364;9.754;2023-11-18T13:57:12;13.90;;;5.97;;
76863;SDS011;65834;52.364;9.754;2023-11-18T13:59:44;12.03;;;5.10;;
76863;SDS011;65834;52.364;9.754;2023-11-18T14:02:14;14.98;;;5.50;;
76863;SDS011;65834;52.364;9.754;2023-11-18T14:04:44;14.23;;;6.50;;
76863;SDS011;65834;52.364;9.754;2023-11-18T14:07:15;14.07;;;5.33;;
76863;SDS011;65834;52.364;9.754;2023-11-18T14:09:45;13.03;;;5.27;;
76863;SDS011;65834;52.364;9.754;2023-11-18T14:12:16;15.77;;;6.23;;
76863;SDS011;65834;52.364;9.754;2023-11-18T14:14:48;13.73;;;5.37;;
76863;SDS011;65834;52.364;9.754;2023-11-18T14:17:19;13.97;;;5.60;;
76863;SDS011;65834;52.364;9.754;2023-11-18T14:19:49;12.73;;;5.47;;
76863;SDS011;65834;52.364;9.754;2023-11-18T14:22:19;13.37;;;5.03;;
76863;SDS011;65834;52.364;9.754;2023-11-18T14:24:48;12.30;;;4.70;;
76863;SDS011;65834;52.364;9.754;2023-11-18T14:27:18;13.10;;;5.40;;
76863;SDS011;65834;52.364;9.754;2023-11-18T14:29:51;12.47;;;5.40;;
76863;SDS011;65834;52.364;9.754;2023-11-18T14:32:20;11.50;;;4.75;;
76863;SDS011;65834;52.364;9.754;2023-11-18T14:34:50;13.43;;;5.70;;
76863;SDS011;65834;52.364;9.754;2023-11-18T14:37:20;13.33;;;4.83;;
76863;SDS011;65834;52.364;9.754;2023-11-18T14:39:50;13.47;;;5.57;;
76863;SDS011;65834;52.364;9.754;2023-11-18T14:42:20;13.00;;;4.97;;
76863;SDS011;65834;52.364;9.754;2023-11-18T14:44:52;13.03;;;4.90;;
76863;SDS011;65834;52.364;9.754;2023-11-18T14:47:23;12.93;;;4.83;;
76863;SDS011;65834;52.364;9.754;2023-11-18T14:49:53;13.00;;;4.57;;
76863;SDS011;65834;52.364;9.754;2023-11-18T14:52:22;11.07;;;4.40;;
76863;SDS011;65834;52.364;9.754;2023-11-18T14:54:52;10.03;;;4.20;;
76863;SDS011;65834;52.364;9.754;2023-11-18T14:57:21;13.50;;;5.10;;
76863;SDS011;65834;52.364;9.754;2023-11-18T14:59:54;12.37;;;5.20;;
76863;SDS011;65834;52.364;9.754;2023-11-18T15:02:25;13.27;;;5.33;;
76863;SDS011;65834;52.364;9.754;2023-11-18T15:04:55;13.87;;;5.00;;
76863;SDS011;65834;52.364;9.754;2023-11-18T15:07:24;13.93;;;5.20;;
76863;SDS011;65834;52.364;9.754;2023-11-18T15:09:54;13.53;;;5.60;;
76863;SDS011;65834;52.364;9.754;2023-11-18T15:12:24;13.23;;;5.53;;
76863;SDS011;65834;52.364;9.754;2023-11-18T15:14:56;13.37;;;5.77;;
76863;SDS011;65834;52.364;9.754;2023-11-18T15:17:27;15.10;;;6.38;;